Private Wetterstation Sandau
Wetterdaten: Mittwoch, 13.06.2012
Datum Zeit Temp. A. Feuchte A. Luftdruck Regen Wind Richtung Richtung Taupunkt Windchill
13.06.2012 00:01 14,9 C 83 % 1005,6 hPa 0,0 l/m 2,5 km/h (1 Bft) W 270 12,0 C 14,9 C
13.06.2012 00:06 14,9 C 83 % 1005,6 hPa 0,0 l/m 0,0 km/h (0 Bft) NW 315 12,0 C 14,9 C
13.06.2012 00:11 14,9 C 83 % 1005,6 hPa 0,0 l/m 2,9 km/h (1 Bft) NW 315 12,0 C 14,9 C
13.06.2012 00:16 14,9 C 83 % 1005,6 hPa 0,0 l/m 0,0 km/h (0 Bft) N-NW 337 12,0 C 14,9 C
13.06.2012 00:21 14,9 C 83 % 1005,6 hPa 0,0 l/m 0,0 km/h (0 Bft) W-NW 292 12,0 C 14,9 C
13.06.2012 00:26 14,8 C 83 % 1005,7 hPa 0,0 l/m 3,2 km/h (1 Bft) W-NW 292 11,9 C 14,8 C
13.06.2012 00:31 14,8 C 83 % 1005,8 hPa 0,0 l/m 4,0 km/h (1 Bft) W 270 11,9 C 14,8 C
13.06.2012 00:36 14,8 C 83 % 1005,7 hPa 0,0 l/m 3,2 km/h (1 Bft) W-NW 292 11,9 C 14,8 C
13.06.2012 00:41 14,8 C 83 % 1005,8 hPa 0,0 l/m 2,2 km/h (1 Bft) W-NW 292 11,9 C 14,8 C
13.06.2012 00:46 14,8 C 83 % 1005,8 hPa 0,0 l/m 2,9 km/h (1 Bft) N 360 11,9 C 14,8 C
13.06.2012 00:51 14,8 C 83 % 1005,9 hPa 0,0 l/m 4,7 km/h (1 Bft) W 270 11,9 C 14,8 C
13.06.2012 00:56 14,6 C 83 % 1005,9 hPa 0,0 l/m 5,0 km/h (1 Bft) W-NW 292 11,7 C 14,6 C
13.06.2012 01:01 14,6 C 83 % 1005,8 hPa 0,0 l/m 7,2 km/h (2 Bft) W-NW 292 11,7 C 14,6 C
13.06.2012 01:06 14,5 C 83 % 1005,7 hPa 0,0 l/m 3,6 km/h (1 Bft) W-NW 292 11,6 C 14,5 C
13.06.2012 01:11 14,5 C 83 % 1005,8 hPa 0,0 l/m 4,0 km/h (1 Bft) W 270 11,6 C 14,5 C
13.06.2012 01:16 14,4 C 83 % 1005,8 hPa 0,0 l/m 2,5 km/h (1 Bft) W-NW 292 11,5 C 14,4 C
13.06.2012 01:21 14,3 C 83 % 1005,8 hPa 0,0 l/m 3,6 km/h (1 Bft) W-NW 292 11,5 C 14,3 C
13.06.2012 01:26 14,2 C 83 % 1005,8 hPa 0,0 l/m 3,2 km/h (1 Bft) W 270 11,4 C 14,2 C
13.06.2012 01:31 14,1 C 83 % 1005,9 hPa 0,0 l/m 3,2 km/h (1 Bft) W 270 11,3 C 14,1 C
13.06.2012 01:36 14,1 C 83 % 1005,9 hPa 0,0 l/m 0,0 km/h (0 Bft) W 270 11,3 C 14,1 C
13.06.2012 01:41 13,9 C 84 % 1006,0 hPa 0,0 l/m 4,0 km/h (1 Bft) W-NW 292 11,2 C 13,9 C
13.06.2012 01:46 13,9 C 84 % 1006,0 hPa 0,0 l/m 4,7 km/h (1 Bft) NW 315 11,2 C 13,9 C
13.06.2012 01:51 13,9 C 84 % 1006,1 hPa 0,0 l/m 2,9 km/h (1 Bft) W-NW 292 11,2 C 13,9 C
13.06.2012 01:56 13,9 C 84 % 1006,0 hPa 0,0 l/m 2,9 km/h (1 Bft) NW 315 11,2 C 13,9 C
13.06.2012 02:01 13,9 C 84 % 1006,0 hPa 0,0 l/m 3,2 km/h (1 Bft) W-NW 292 11,2 C 13,9 C
13.06.2012 02:06 13,9 C 84 % 1006,2 hPa 0,0 l/m 3,2 km/h (1 Bft) W-NW 292 11,2 C 13,9 C
13.06.2012 02:11 13,9 C 84 % 1006,2 hPa 0,0 l/m 4,0 km/h (1 Bft) W 270 11,2 C 13,9 C
13.06.2012 02:16 13,8 C 84 % 1006,3 hPa 0,0 l/m 0,0 km/h (0 Bft) W 270 11,1 C 13,8 C
13.06.2012 02:21 13,8 C 84 % 1006,2 hPa 0,0 l/m 1,4 km/h (1 Bft) W-NW 292 11,1 C 13,8 C
13.06.2012 02:26 13,8 C 84 % 1006,2 hPa 0,0 l/m 4,7 km/h (1 Bft) NW 315 11,1 C 13,8 C
13.06.2012 02:31 13,8 C 84 % 1006,2 hPa 0,0 l/m 4,0 km/h (1 Bft) W-NW 292 11,1 C 13,8 C
13.06.2012 02:36 13,6 C 84 % 1006,0 hPa 0,0 l/m 2,9 km/h (1 Bft) NW 315 10,9 C 13,6 C
13.06.2012 02:41 13,6 C 84 % 1006,0 hPa 0,0 l/m 5,8 km/h (2 Bft) W-NW 292 10,9 C 13,6 C
13.06.2012 02:46 13,5 C 84 % 1005,9 hPa 0,0 l/m 4,0 km/h (1 Bft) W-NW 292 10,8 C 13,5 C
13.06.2012 02:51 13,4 C 84 % 1005,9 hPa 0,0 l/m 4,0 km/h (1 Bft) NW 315 10,8 C 13,4 C
13.06.2012 02:56 13,4 C 84 % 1005,9 hPa 0,0 l/m 4,3 km/h (1 Bft) NW 315 10,8 C 13,4 C
13.06.2012 03:01 13,3 C 84 % 1005,9 hPa 0,0 l/m 0,0 km/h (0 Bft) W-NW 292 10,7 C 13,3 C
13.06.2012 03:06 13,3 C 84 % 1005,9 hPa 0,0 l/m 4,0 km/h (1 Bft) NW 315 10,7 C 13,3 C
13.06.2012 03:11 13,2 C 84 % 1006,0 hPa 0,0 l/m 1,1 km/h (1 Bft) W-NW 292 10,6 C 13,2 C
13.06.2012 03:16 13,2 C 85 % 1006,0 hPa 0,0 l/m 2,5 km/h (1 Bft) W-NW 292 10,7 C 13,2 C
13.06.2012 03:21 13,1 C 85 % 1006,2 hPa 0,0 l/m 2,9 km/h (1 Bft) W-NW 292 10,6 C 13,1 C
13.06.2012 03:26 13,1 C 85 % 1006,1 hPa 0,0 l/m 4,7 km/h (1 Bft) NW 315 10,6 C 13,1 C
13.06.2012 03:31 13,1 C 85 % 1006,1 hPa 0,0 l/m 9,0 km/h (2 Bft) W-NW 292 10,6 C 13,1 C
13.06.2012 03:36 13,0 C 85 % 1006,1 hPa 0,0 l/m 4,7 km/h (1 Bft) NW 315 10,5 C 13,0 C
13.06.2012 03:41 12,9 C 85 % 1006,2 hPa 0,0 l/m 4,7 km/h (1 Bft) W 270 10,4 C 12,9 C
13.06.2012 03:46 12,8 C 85 % 1006,3 hPa 0,0 l/m 5,0 km/h (1 Bft) W-NW 292 10,3 C 12,8 C
13.06.2012 03:51 12,8 C 84 % 1006,4 hPa 0,0 l/m 5,4 km/h (1 Bft) NW 315 10,2 C 12,8 C
13.06.2012 03:56 12,6 C 84 % 1006,5 hPa 0,0 l/m 6,5 km/h (2 Bft) NW 315 10,0 C 12,6 C
13.06.2012 04:01 12,6 C 85 % 1006,4 hPa 0,0 l/m 7,6 km/h (2 Bft) NW 315 10,1 C 12,6 C
13.06.2012 04:06 12,5 C 84 % 1006,6 hPa 0,0 l/m 5,0 km/h (1 Bft) W-NW 292 9,9 C 12,5 C
13.06.2012 04:11 12,4 C 84 % 1006,5 hPa 0,0 l/m 7,2 km/h (2 Bft) W-NW 292 9,8 C 12,4 C
13.06.2012 04:16 12,4 C 85 % 1006,6 hPa 0,0 l/m 7,2 km/h (2 Bft) W-NW 292 9,9 C 12,4 C
13.06.2012 04:21 12,4 C 85 % 1006,7 hPa 0,0 l/m 6,1 km/h (2 Bft) W-NW 292 9,9 C 12,4 C
13.06.2012 04:26 12,4 C 85 % 1006,7 hPa 0,0 l/m 3,6 km/h (1 Bft) W 270 9,9 C 12,4 C
13.06.2012 04:31 12,3 C 85 % 1006,8 hPa 0,0 l/m 4,7 km/h (1 Bft) N-NW 337 9,9 C 12,3 C
13.06.2012 04:36 12,3 C 85 % 1006,8 hPa 0,0 l/m 0,0 km/h (0 Bft) W-NW 292 9,9 C 12,3 C
13.06.2012 04:41 12,3 C 84 % 1006,9 hPa 0,0 l/m 0,0 km/h (0 Bft) W 270 9,7 C 12,3 C
13.06.2012 04:46 12,3 C 84 % 1007,0 hPa 0,0 l/m 2,5 km/h (1 Bft) W-NW 292 9,7 C 12,3 C
13.06.2012 04:51 12,3 C 84 % 1007,0 hPa 0,0 l/m 3,6 km/h (1 Bft) W-NW 292 9,7 C 12,3 C
13.06.2012 04:56 12,3 C 84 % 1007,0 hPa 0,0 l/m 2,5 km/h (1 Bft) NW 315 9,7 C 12,3 C
13.06.2012 05:01 12,3 C 85 % 1007,2 hPa 0,0 l/m 4,7 km/h (1 Bft) W-NW 292 9,9 C 12,3 C
13.06.2012 05:06 12,3 C 85 % 1007,3 hPa 0,0 l/m 4,0 km/h (1 Bft) NW 315 9,9 C 12,3 C
13.06.2012 05:11 12,3 C 85 % 1007,3 hPa 0,0 l/m 5,0 km/h (1 Bft) W 270 9,9 C 12,3 C
13.06.2012 05:16 12,4 C 85 % 1007,4 hPa 0,0 l/m 3,6 km/h (1 Bft) NW 315 9,9 C 12,4 C
13.06.2012 05:21 12,4 C 85 % 1007,3 hPa 0,0 l/m 6,8 km/h (2 Bft) W-NW 292 9,9 C 12,4 C
13.06.2012 05:26 12,4 C 86 % 1007,3 hPa 0,0 l/m 7,2 km/h (2 Bft) W-NW 292 10,1 C 12,4 C
13.06.2012 05:31 12,4 C 86 % 1007,4 hPa 0,0 l/m 5,4 km/h (1 Bft) N-NW 337 10,1 C 12,4 C
13.06.2012 05:36 12,4 C 86 % 1007,4 hPa 0,0 l/m 4,0 km/h (1 Bft) NW 315 10,1 C 12,4 C
13.06.2012 05:41 12,4 C 86 % 1007,4 hPa 0,0 l/m 10,4 km/h (2 Bft) N-NW 337 10,1 C 12,4 C
13.06.2012 05:46 12,4 C 86 % 1007,5 hPa 0,0 l/m 6,1 km/h (2 Bft) N-NW 337 10,1 C 12,4 C
13.06.2012 05:51 12,5 C 87 % 1007,6 hPa 0,0 l/m 4,0 km/h (1 Bft) W 270 10,4 C 12,5 C
13.06.2012 05:56 12,7 C 87 % 1007,7 hPa 0,0 l/m 6,1 km/h (2 Bft) W 270 10,6 C 12,7 C
13.06.2012 06:01 12,8 C 86 % 1007,7 hPa 0,0 l/m 9,7 km/h (2 Bft) W-NW 292 10,5 C 12,8 C
13.06.2012 06:06 12,9 C 86 % 1007,7 hPa 0,0 l/m 10,4 km/h (2 Bft) W-NW 292 10,6 C 12,9 C
13.06.2012 06:11 13,1 C 86 % 1007,7 hPa 0,0 l/m 7,9 km/h (2 Bft) W 270 10,8 C 13,1 C
13.06.2012 06:16 13,2 C 85 % 1007,8 hPa 0,0 l/m 9,7 km/h (2 Bft) NW 315 10,7 C 13,2 C
13.06.2012 06:21 13,3 C 85 % 1008,0 hPa 0,0 l/m 7,9 km/h (2 Bft) NW 315 10,8 C 13,3 C
13.06.2012 06:26 13,3 C 85 % 1008,0 hPa 0,0 l/m 3,6 km/h (1 Bft) W-NW 292 10,8 C 13,3 C
13.06.2012 06:31 13,3 C 85 % 1008,0 hPa 0,0 l/m 5,8 km/h (2 Bft) W-NW 292 10,8 C 13,3 C
13.06.2012 06:36 13,3 C 85 % 1008,1 hPa 0,0 l/m 3,2 km/h (1 Bft) NW 315 10,8 C 13,3 C
13.06.2012 06:41 13,3 C 85 % 1008,1 hPa 0,0 l/m 15,8 km/h (3 Bft) NW 315 10,8 C 13,3 C
13.06.2012 06:46 13,2 C 85 % 1008,2 hPa 0,0 l/m 13,7 km/h (3 Bft) N-NW 337 10,7 C 13,2 C
13.06.2012 06:51 13,3 C 85 % 1008,2 hPa 0,0 l/m 10,1 km/h (2 Bft) NW 315 10,8 C 13,3 C
13.06.2012 06:56 13,3 C 85 % 1008,2 hPa 0,0 l/m 13,3 km/h (3 Bft) N-NW 337 10,8 C 13,3 C
13.06.2012 07:01 13,3 C 85 % 1008,2 hPa 0,0 l/m 6,8 km/h (2 Bft) W-NW 292 10,8 C 13,3 C
13.06.2012 07:06 13,3 C 85 % 1008,3 hPa 0,0 l/m 8,3 km/h (2 Bft) W-NW 292 10,8 C 13,3 C
13.06.2012 07:11 13,3 C 86 % 1008,5 hPa 0,0 l/m 11,2 km/h (2 Bft) NO 45 11,0 C 13,3 C
13.06.2012 07:16 13,3 C 85 % 1008,7 hPa 0,0 l/m 11,2 km/h (2 Bft) NW 315 10,8 C 13,3 C
13.06.2012 07:21 13,3 C 85 % 1008,8 hPa 0,0 l/m 4,7 km/h (1 Bft) W 270 10,8 C 13,3 C
13.06.2012 07:26 13,3 C 85 % 1008,6 hPa 0,0 l/m 7,6 km/h (2 Bft) NW 315 10,8 C 13,3 C
13.06.2012 07:31 13,2 C 85 % 1008,8 hPa 0,0 l/m 9,0 km/h (2 Bft) NW 315 10,7 C 13,2 C
13.06.2012 07:36 13,2 C 85 % 1009,0 hPa 0,0 l/m 13,0 km/h (3 Bft) NW 315 10,7 C 13,2 C
13.06.2012 07:41 13,2 C 85 % 1008,9 hPa 0,0 l/m 9,7 km/h (2 Bft) NW 315 10,7 C 13,2 C
13.06.2012 07:46 13,2 C 85 % 1009,1 hPa 0,0 l/m 11,9 km/h (2 Bft) W-NW 292 10,7 C 13,2 C
13.06.2012 07:51 13,3 C 85 % 1009,2 hPa 0,0 l/m 6,1 km/h (2 Bft) NW 315 10,8 C 13,3 C
13.06.2012 07:56 13,3 C 85 % 1009,2 hPa 0,0 l/m 6,5 km/h (2 Bft) NW 315 10,8 C 13,3 C
13.06.2012 08:01 13,3 C 85 % 1009,2 hPa 0,0 l/m 5,0 km/h (1 Bft) W-NW 292 10,8 C 13,3 C
13.06.2012 08:06 13,4 C 85 % 1009,4 hPa 0,0 l/m 10,1 km/h (2 Bft) W-NW 292 10,9 C 13,4 C
13.06.2012 08:11 13,5 C 85 % 1009,4 hPa 0,0 l/m 7,6 km/h (2 Bft) W-NW 292 11,0 C 13,5 C
13.06.2012 08:16 13,5 C 85 % 1009,4 hPa 0,0 l/m 15,8 km/h (3 Bft) W-NW 292 11,0 C 13,5 C
13.06.2012 08:21 13,5 C 85 % 1009,4 hPa 0,0 l/m 8,3 km/h (2 Bft) NW 315 11,0 C 13,5 C
13.06.2012 08:26 13,6 C 85 % 1009,5 hPa 0,0 l/m 9,4 km/h (2 Bft) NW 315 11,1 C 13,6 C
13.06.2012 08:31 13,7 C 84 % 1009,7 hPa 0,0 l/m 9,4 km/h (2 Bft) W-NW 292 11,0 C 13,7 C
13.06.2012 08:36 13,8 C 84 % 1009,8 hPa 0,0 l/m 12,2 km/h (2 Bft) W-NW 292 11,1 C 13,8 C
13.06.2012 08:41 13,8 C 84 % 1009,8 hPa 0,0 l/m 10,8 km/h (2 Bft) N-NW 337 11,1 C 13,8 C
13.06.2012 08:46 13,8 C 84 % 1009,8 hPa 0,0 l/m 5,4 km/h (1 Bft) W 270 11,1 C 13,8 C
13.06.2012 08:51 13,9 C 84 % 1009,8 hPa 0,0 l/m 7,6 km/h (2 Bft) NW 315 11,2 C 13,9 C
13.06.2012 08:56 13,9 C 83 % 1009,8 hPa 0,0 l/m 3,2 km/h (1 Bft) W 270 11,1 C 13,9 C
13.06.2012 09:01 13,9 C 83 % 1009,9 hPa 0,0 l/m 13,7 km/h (3 Bft) W-NW 292 11,1 C 13,9 C
13.06.2012 09:06 14,0 C 83 % 1009,9 hPa 0,0 l/m 6,1 km/h (2 Bft) W-NW 292 11,2 C 14,0 C
13.06.2012 09:11 14,1 C 82 % 1010,1 hPa 0,0 l/m 6,8 km/h (2 Bft) NW 315 11,1 C 14,1 C
13.06.2012 09:16 14,3 C 83 % 1010,1 hPa 0,0 l/m 4,7 km/h (1 Bft) N-NW 337 11,5 C 14,3 C
13.06.2012 09:21 14,5 C 83 % 1010,2 hPa 0,0 l/m 5,8 km/h (2 Bft) NW 315 11,6 C 14,5 C
13.06.2012 09:26 14,6 C 82 % 1010,1 hPa 0,0 l/m 7,6 km/h (2 Bft) W-NW 292 11,6 C 14,6 C
13.06.2012 09:31 14,9 C 81 % 1010,2 hPa 0,0 l/m 13,7 km/h (3 Bft) NW 315 11,7 C 14,9 C
13.06.2012 09:36 14,9 C 81 % 1010,2 hPa 0,0 l/m 14,4 km/h (3 Bft) W-NW 292 11,7 C 14,9 C
13.06.2012 09:41 14,9 C 80 % 1010,3 hPa 0,0 l/m 4,3 km/h (1 Bft) NW 315 11,5 C 14,9 C
13.06.2012 09:46 14,9 C 80 % 1010,4 hPa 0,0 l/m 3,2 km/h (1 Bft) NW 315 11,5 C 14,9 C
13.06.2012 09:51 14,9 C 79 % 1010,4 hPa 0,0 l/m 14,8 km/h (3 Bft) NW 315 11,3 C 14,9 C
13.06.2012 09:56 14,8 C 79 % 1010,5 hPa 0,0 l/m 5,0 km/h (1 Bft) W 270 11,2 C 14,8 C
13.06.2012 10:01 14,8 C 79 % 1010,6 hPa 0,0 l/m 4,7 km/h (1 Bft) W-NW 292 11,2 C 14,8 C
13.06.2012 10:06 14,9 C 79 % 1010,5 hPa 0,0 l/m 9,7 km/h (2 Bft) W 270 11,3 C 14,9 C
13.06.2012 10:11 14,9 C 80 % 1010,6 hPa 0,0 l/m 5,4 km/h (1 Bft) W-NW 292 11,5 C 14,9 C
13.06.2012 10:16 14,9 C 79 % 1010,6 hPa 0,0 l/m 14,4 km/h (3 Bft) W 270 11,3 C 14,9 C
13.06.2012 10:21 14,9 C 79 % 1010,7 hPa 0,0 l/m 11,2 km/h (2 Bft) W 270 11,3 C 14,9 C
13.06.2012 10:26 15,1 C 79 % 1010,8 hPa 0,0 l/m 15,8 km/h (3 Bft) NW 315 11,5 C 15,1 C
13.06.2012 10:31 15,1 C 78 % 1010,9 hPa 0,0 l/m 8,6 km/h (2 Bft) N-NO 22 11,3 C 15,1 C
13.06.2012 10:36 15,2 C 79 % 1010,9 hPa 0,0 l/m 2,5 km/h (1 Bft) N 360 11,6 C 15,2 C
13.06.2012 10:41 15,3 C 78 % 1011,0 hPa 0,0 l/m 6,5 km/h (2 Bft) N 360 11,5 C 15,3 C
13.06.2012 10:46 15,5 C 78 % 1011,0 hPa 0,0 l/m 6,5 km/h (2 Bft) W-NW 292 11,7 C 15,5 C
13.06.2012 10:51 15,6 C 78 % 1011,0 hPa 0,0 l/m 8,3 km/h (2 Bft) S 180 11,8 C 15,6 C
13.06.2012 10:56 15,8 C 77 % 1011,1 hPa 0,0 l/m 6,8 km/h (2 Bft) N-NW 337 11,8 C 15,8 C
13.06.2012 11:01 15,9 C 77 % 1011,0 hPa 0,0 l/m 3,6 km/h (1 Bft) O-NO 67 11,9 C 15,9 C
13.06.2012 11:06 16,1 C 76 % 1011,2 hPa 0,0 l/m 5,0 km/h (1 Bft) NW 315 11,9 C 16,1 C
13.06.2012 11:11 16,3 C 76 % 1011,3 hPa 0,0 l/m 11,5 km/h (2 Bft) NW 315 12,1 C 16,3 C
13.06.2012 11:16 16,4 C 74 % 1011,3 hPa 0,0 l/m 12,6 km/h (3 Bft) W 270 11,8 C 16,4 C
13.06.2012 11:21 16,4 C 74 % 1011,3 hPa 0,0 l/m 3,6 km/h (1 Bft) O-NO 67 11,8 C 16,4 C
13.06.2012 11:26 16,4 C 74 % 1011,3 hPa 0,0 l/m 4,7 km/h (1 Bft) NW 315 11,8 C 16,4 C
13.06.2012 11:31 16,6 C 74 % 1011,4 hPa 0,0 l/m 5,8 km/h (2 Bft) NW 315 11,9 C 16,6 C
13.06.2012 11:36 16,9 C 73 % 1011,4 hPa 0,0 l/m 12,2 km/h (2 Bft) N-NO 22 12,0 C 16,9 C
13.06.2012 11:41 17,1 C 72 % 1011,5 hPa 0,0 l/m 14,8 km/h (3 Bft) N 360 12,0 C 17,1 C
13.06.2012 11:46 17,3 C 71 % 1011,5 hPa 0,0 l/m 2,5 km/h (1 Bft) NO 45 12,0 C 17,3 C
13.06.2012 11:51 17,5 C 71 % 1011,5 hPa 0,0 l/m 6,8 km/h (2 Bft) W-NW 292 12,2 C 17,5 C
13.06.2012 11:56 17,8 C 69 % 1011,6 hPa 0,0 l/m 0,0 km/h (0 Bft) N-NW 337 12,0 C 17,8 C
13.06.2012 12:01 17,9 C 69 % 1011,6 hPa 0,0 l/m 5,4 km/h (1 Bft) N 360 12,1 C 17,9 C
13.06.2012 12:06 17,9 C 69 % 1011,7 hPa 0,0 l/m 8,6 km/h (2 Bft) W-NW 292 12,1 C 17,9 C
13.06.2012 12:11 18,3 C 67 % 1011,8 hPa 0,0 l/m 6,5 km/h (2 Bft) N-NO 22 12,1 C 18,3 C
13.06.2012 12:16 18,3 C 67 % 1011,7 hPa 0,0 l/m 6,5 km/h (2 Bft) W 270 12,1 C 18,3 C
13.06.2012 12:21 18,3 C 68 % 1011,9 hPa 0,0 l/m 9,4 km/h (2 Bft) W 270 12,3 C 18,3 C
13.06.2012 12:26 18,4 C 68 % 1011,9 hPa 0,0 l/m 5,8 km/h (2 Bft) W-NW 292 12,4 C 18,4 C
13.06.2012 12:31 18,5 C 68 % 1011,7 hPa 0,0 l/m 7,6 km/h (2 Bft) NW 315 12,5 C 18,5 C
13.06.2012 12:36 18,5 C 67 % 1011,8 hPa 0,0 l/m 6,5 km/h (2 Bft) W 270 12,3 C 18,5 C
13.06.2012 12:41 18,4 C 67 % 1011,9 hPa 0,0 l/m 11,2 km/h (2 Bft) W-NW 292 12,2 C 18,4 C
13.06.2012 12:46 18,5 C 67 % 1011,9 hPa 0,0 l/m 18,4 km/h (3 Bft) NW 315 12,3 C 18,5 C
13.06.2012 12:51 18,8 C 67 % 1012,0 hPa 0,0 l/m 9,7 km/h (2 Bft) W 270 12,5 C 18,8 C
13.06.2012 12:56 18,9 C 66 % 1012,0 hPa 0,0 l/m 8,3 km/h (2 Bft) W 270 12,4 C 18,9 C
13.06.2012 13:01 18,9 C 66 % 1012,1 hPa 0,0 l/m 5,8 km/h (2 Bft) W-NW 292 12,4 C 18,9 C
13.06.2012 13:06 18,8 C 66 % 1012,1 hPa 0,0 l/m 12,6 km/h (3 Bft) W-NW 292 12,3 C 18,8 C
13.06.2012 13:11 18,9 C 66 % 1012,1 hPa 0,0 l/m 13,3 km/h (3 Bft) N-NW 337 12,4 C 18,9 C
13.06.2012 13:16 18,9 C 64 % 1012,1 hPa 0,0 l/m 11,5 km/h (2 Bft) W-NW 292 11,9 C 18,9 C
13.06.2012 13:21 18,9 C 65 % 1012,2 hPa 0,0 l/m 4,7 km/h (1 Bft) W 270 12,2 C 18,9 C
13.06.2012 13:26 19,1 C 64 % 1012,2 hPa 0,0 l/m 12,6 km/h (3 Bft) W-NW 292 12,1 C 19,1 C
13.06.2012 13:31 19,1 C 64 % 1012,3 hPa 0,0 l/m 4,0 km/h (1 Bft) W-NW 292 12,1 C 19,1 C
13.06.2012 13:36 19,2 C 63 % 1012,3 hPa 0,0 l/m 9,7 km/h (2 Bft) W-NW 292 12,0 C 19,2 C
13.06.2012 13:41 19,2 C 63 % 1012,4 hPa 0,0 l/m 6,8 km/h (2 Bft) NW 315 12,0 C 19,2 C
13.06.2012 13:46 19,4 C 62 % 1012,5 hPa 0,0 l/m 6,8 km/h (2 Bft) W-NW 292 11,9 C 19,4 C
13.06.2012 13:51 19,6 C 62 % 1012,5 hPa 0,0 l/m 11,9 km/h (2 Bft) NW 315 12,1 C 19,6 C
13.06.2012 13:56 19,6 C 60 % 1012,5 hPa 0,0 l/m 4,0 km/h (1 Bft) N-NW 337 11,6 C 19,6 C
13.06.2012 14:01 19,4 C 61 % 1012,6 hPa 0,0 l/m 0,0 km/h (0 Bft) N-NO 22 11,7 C 19,4 C
13.06.2012 14:06 19,3 C 62 % 1012,6 hPa 0,0 l/m 8,3 km/h (2 Bft) W 270 11,8 C 19,3 C
13.06.2012 14:11 19,3 C 62 % 1012,7 hPa 0,0 l/m 13,0 km/h (3 Bft) W-NW 292 11,8 C 19,3 C
13.06.2012 14:16 19,4 C 62 % 1012,7 hPa 0,0 l/m 8,3 km/h (2 Bft) N-NO 22 11,9 C 19,4 C
13.06.2012 14:21 19,0 C 62 % 1012,7 hPa 0,0 l/m 6,8 km/h (2 Bft) W-NW 292 11,6 C 19,0 C
13.06.2012 14:26 18,8 C 61 % 1012,8 hPa 0,0 l/m 5,0 km/h (1 Bft) N-NW 337 11,1 C 18,8 C
13.06.2012 14:31 18,4 C 62 % 1012,8 hPa 0,0 l/m 3,6 km/h (1 Bft) W-NW 292 11,0 C 18,4 C
13.06.2012 14:36 18,3 C 63 % 1012,8 hPa 0,0 l/m 6,1 km/h (2 Bft) W 270 11,1 C 18,3 C
13.06.2012 14:41 18,7 C 64 % 1012,7 hPa 0,0 l/m 5,0 km/h (1 Bft) NW 315 11,7 C 18,7 C
13.06.2012 14:46 19,0 C 62 % 1012,7 hPa 0,0 l/m 4,3 km/h (1 Bft) W-SW 247 11,6 C 19,0 C
13.06.2012 14:51 19,2 C 62 % 1012,7 hPa 0,0 l/m 15,1 km/h (3 Bft) W 270 11,7 C 19,2 C
13.06.2012 14:56 19,2 C 60 % 1012,6 hPa 0,0 l/m 2,9 km/h (1 Bft) NO 45 11,2 C 19,2 C
13.06.2012 15:01 19,2 C 59 % 1012,7 hPa 0,0 l/m 5,4 km/h (1 Bft) W 270 11,0 C 19,2 C
13.06.2012 15:06 19,4 C 60 % 1012,7 hPa 0,0 l/m 9,4 km/h (2 Bft) W 270 11,4 C 19,4 C
13.06.2012 15:11 19,8 C 59 % 1012,6 hPa 0,0 l/m 9,7 km/h (2 Bft) W 270 11,6 C 19,8 C
13.06.2012 15:16 20,1 C 59 % 1012,6 hPa 0,0 l/m 5,0 km/h (1 Bft) W 270 11,8 C 20,1 C
13.06.2012 15:21 20,2 C 57 % 1012,6 hPa 0,0 l/m 3,2 km/h (1 Bft) W-NW 292 11,4 C 20,2 C
13.06.2012 15:26 20,3 C 56 % 1012,7 hPa 0,0 l/m 4,7 km/h (1 Bft) NO 45 11,2 C 20,3 C
13.06.2012 15:31 19,9 C 56 % 1012,7 hPa 0,0 l/m 6,5 km/h (2 Bft) NW 315 10,9 C 19,9 C
13.06.2012 15:36 19,9 C 57 % 1012,7 hPa 0,0 l/m 5,8 km/h (2 Bft) W-SW 247 11,1 C 19,9 C
13.06.2012 15:41 20,1 C 57 % 1012,7 hPa 0,0 l/m 4,0 km/h (1 Bft) NW 315 11,3 C 20,1 C
13.06.2012 15:46 20,4 C 56 % 1012,7 hPa 0,0 l/m 6,5 km/h (2 Bft) N 360 11,3 C 20,4 C
13.06.2012 15:51 20,5 C 55 % 1012,7 hPa 0,0 l/m 12,6 km/h (3 Bft) N 360 11,1 C 20,5 C
13.06.2012 15:56 20,8 C 55 % 1012,8 hPa 0,0 l/m 7,9 km/h (2 Bft) NW 315 11,4 C 20,8 C
13.06.2012 16:01 20,9 C 55 % 1012,8 hPa 0,0 l/m 14,8 km/h (3 Bft) N-NW 337 11,5 C 20,9 C
13.06.2012 16:06 20,8 C 53 % 1013,0 hPa 0,0 l/m 4,0 km/h (1 Bft) O-NO 67 10,9 C 20,8 C
13.06.2012 16:11 20,6 C 54 % 1012,9 hPa 0,0 l/m 7,9 km/h (2 Bft) W 270 11,0 C 20,6 C
13.06.2012 16:16 20,6 C 52 % 1012,8 hPa 0,0 l/m 6,1 km/h (2 Bft) N-NW 337 10,4 C 20,6 C
13.06.2012 16:21 20,5 C 52 % 1013,0 hPa 0,0 l/m 9,0 km/h (2 Bft) N 360 10,3 C 20,5 C
13.06.2012 16:26 20,6 C 53 % 1013,0 hPa 0,0 l/m 7,6 km/h (2 Bft) NW 315 10,7 C 20,6 C
13.06.2012 16:31 20,8 C 52 % 1013,0 hPa 0,0 l/m 4,0 km/h (1 Bft) W 270 10,6 C 20,8 C
13.06.2012 16:36 20,8 C 50 % 1013,0 hPa 0,0 l/m 7,9 km/h (2 Bft) N-NW 337 10,0 C 20,8 C
13.06.2012 16:41 20,8 C 51 % 1012,9 hPa 0,0 l/m 8,3 km/h (2 Bft) W-NW 292 10,3 C 20,8 C
13.06.2012 16:46 20,6 C 49 % 1013,0 hPa 0,0 l/m 2,9 km/h (1 Bft) W-NW 292 9,5 C 20,6 C
13.06.2012 16:51 20,6 C 51 % 1013,1 hPa 0,0 l/m 3,2 km/h (1 Bft) NW 315 10,1 C 20,6 C
13.06.2012 16:56 20,7 C 50 % 1013,1 hPa 0,0 l/m 5,4 km/h (1 Bft) W 270 9,9 C 20,7 C
13.06.2012 17:01 20,6 C 51 % 1013,1 hPa 0,0 l/m 4,0 km/h (1 Bft) N-NO 22 10,1 C 20,6 C
13.06.2012 17:06 20,6 C 51 % 1013,2 hPa 0,0 l/m 3,2 km/h (1 Bft) NW 315 10,1 C 20,6 C
13.06.2012 17:11 20,4 C 50 % 1013,2 hPa 0,0 l/m 3,2 km/h (1 Bft) NW 315 9,6 C 20,4 C
13.06.2012 17:16 20,1 C 49 % 1013,1 hPa 0,0 l/m 7,6 km/h (2 Bft) N-NO 22 9,0 C 20,1 C
13.06.2012 17:21 19,6 C 50 % 1013,2 hPa 0,0 l/m 7,6 km/h (2 Bft) N-NO 22 8,9 C 19,6 C
13.06.2012 17:26 19,4 C 51 % 1013,1 hPa 0,0 l/m 6,1 km/h (2 Bft) NO 45 9,0 C 19,4 C
13.06.2012 17:31 19,2 C 51 % 1013,3 hPa 0,0 l/m 7,6 km/h (2 Bft) N 360 8,8 C 19,2 C
13.06.2012 17:36 19,1 C 52 % 1013,4 hPa 0,0 l/m 6,1 km/h (2 Bft) NO 45 9,0 C 19,1 C
13.06.2012 17:41 19,1 C 52 % 1013,4 hPa 0,0 l/m 7,2 km/h (2 Bft) N-NO 22 9,0 C 19,1 C
13.06.2012 17:46 18,9 C 52 % 1013,4 hPa 0,0 l/m 4,7 km/h (1 Bft) O-NO 67 8,8 C 18,9 C
13.06.2012 17:51 18,9 C 53 % 1013,4 hPa 0,0 l/m 5,4 km/h (1 Bft) W 270 9,1 C 18,9 C
13.06.2012 17:56 19,1 C 53 % 1013,4 hPa 0,0 l/m 6,8 km/h (2 Bft) NO 45 9,3 C 19,1 C
13.06.2012 18:01 19,1 C 52 % 1013,4 hPa 0,0 l/m 8,6 km/h (2 Bft) W-SW 247 9,0 C 19,1 C
13.06.2012 18:06 18,9 C 51 % 1013,5 hPa 0,0 l/m 5,4 km/h (1 Bft) N-NO 22 8,5 C 18,9 C
13.06.2012 18:11 18,8 C 52 % 1013,5 hPa 0,0 l/m 6,1 km/h (2 Bft) O-NO 67 8,7 C 18,8 C
13.06.2012 18:16 18,7 C 52 % 1013,5 hPa 0,0 l/m 6,8 km/h (2 Bft) N 360 8,6 C 18,7 C
13.06.2012 18:21 18,8 C 53 % 1013,6 hPa 0,0 l/m 7,2 km/h (2 Bft) N 360 9,0 C 18,8 C
13.06.2012 18:26 18,9 C 52 % 1013,6 hPa 0,0 l/m 3,2 km/h (1 Bft) N 360 8,8 C 18,9 C
13.06.2012 18:31 19,2 C 52 % 1013,7 hPa 0,0 l/m 5,8 km/h (2 Bft) N-NO 22 9,1 C 19,2 C
13.06.2012 18:36 19,2 C 51 % 1013,7 hPa 0,0 l/m 4,0 km/h (1 Bft) N 360 8,8 C 19,2 C
13.06.2012 18:41 19,2 C 52 % 1013,9 hPa 0,0 l/m 3,2 km/h (1 Bft) W-NW 292 9,1 C 19,2 C
13.06.2012 18:46 19,4 C 52 % 1013,7 hPa 0,0 l/m 2,9 km/h (1 Bft) W-NW 292 9,3 C 19,4 C
13.06.2012 18:51 19,6 C 52 % 1013,8 hPa 0,0 l/m 2,5 km/h (1 Bft) NW 315 9,5 C 19,6 C
13.06.2012 18:56 19,6 C 51 % 1013,9 hPa 0,0 l/m 7,2 km/h (2 Bft) N-NW 337 9,2 C 19,6 C
13.06.2012 19:01 19,6 C 51 % 1013,9 hPa 0,0 l/m 8,6 km/h (2 Bft) N-NW 337 9,2 C 19,6 C
13.06.2012 19:06 19,4 C 51 % 1013,9 hPa 0,0 l/m 3,6 km/h (1 Bft) N-NO 22 9,0 C 19,4 C
13.06.2012 19:11 19,2 C 50 % 1013,9 hPa 0,0 l/m 9,0 km/h (2 Bft) N-NO 22 8,5 C 19,2 C
13.06.2012 19:16 18,9 C 51 % 1014,1 hPa 0,0 l/m 3,6 km/h (1 Bft) NW 315 8,5 C 18,9 C
13.06.2012 19:21 18,8 C 51 % 1014,1 hPa 0,0 l/m 9,7 km/h (2 Bft) NO 45 8,4 C 18,8 C
13.06.2012 19:26 18,6 C 50 % 1014,2 hPa 0,0 l/m 9,0 km/h (2 Bft) NO 45 8,0 C 18,6 C
13.06.2012 19:31 18,5 C 50 % 1014,1 hPa 0,0 l/m 6,8 km/h (2 Bft) N 360 7,9 C 18,5 C
13.06.2012 19:36 18,4 C 51 % 1014,1 hPa 0,0 l/m 4,7 km/h (1 Bft) W-NW 292 8,1 C 18,4 C
13.06.2012 19:41 18,3 C 51 % 1014,0 hPa 0,0 l/m 5,0 km/h (1 Bft) N-NO 22 8,0 C 18,3 C
13.06.2012 19:46 18,3 C 51 % 1014,2 hPa 0,0 l/m 4,0 km/h (1 Bft) NW 315 8,0 C 18,3 C
13.06.2012 19:51 18,2 C 51 % 1014,2 hPa 0,0 l/m 2,5 km/h (1 Bft) N-NW 337 7,9 C 18,2 C
13.06.2012 19:56 18,1 C 51 % 1014,2 hPa 0,0 l/m 3,2 km/h (1 Bft) NO 45 7,8 C 18,1 C
13.06.2012 20:01 18,1 C 52 % 1014,3 hPa 0,0 l/m 4,3 km/h (1 Bft) N-NO 22 8,1 C 18,1 C
13.06.2012 20:06 18,1 C 52 % 1014,5 hPa 0,0 l/m 4,0 km/h (1 Bft) O-NO 67 8,1 C 18,1 C
13.06.2012 20:11 18,1 C 52 % 1014,6 hPa 0,0 l/m 0,0 km/h (0 Bft) O 90 8,1 C 18,1 C
13.06.2012 20:16 18,1 C 53 % 1014,6 hPa 0,0 l/m 2,9 km/h (1 Bft) N 360 8,4 C 18,1 C
13.06.2012 20:21 18,1 C 54 % 1014,5 hPa 0,0 l/m 0,0 km/h (0 Bft) W-SW 247 8,6 C 18,1 C
13.06.2012 20:26 17,9 C 55 % 1014,6 hPa 0,0 l/m 0,0 km/h (0 Bft) NW 315 8,7 C 17,9 C
13.06.2012 20:31 17,9 C 55 % 1014,6 hPa 0,0 l/m 4,0 km/h (1 Bft) W-NW 292 8,7 C 17,9 C
13.06.2012 20:36 17,9 C 55 % 1014,8 hPa 0,0 l/m 3,6 km/h (1 Bft) N-NW 337 8,7 C 17,9 C
13.06.2012 20:41 17,8 C 55 % 1014,7 hPa 0,0 l/m 1,1 km/h (1 Bft) N 360 8,6 C 17,8 C
13.06.2012 20:46 17,5 C 55 % 1014,9 hPa 0,0 l/m 0,0 km/h (0 Bft) N-NO 22 8,4 C 17,5 C
13.06.2012 20:51 17,3 C 55 % 1014,9 hPa 0,0 l/m 2,2 km/h (1 Bft) NO 45 8,2 C 17,3 C
13.06.2012 20:56 17,0 C 55 % 1015,0 hPa 0,0 l/m 2,5 km/h (1 Bft) NW 315 7,9 C 17,0 C
13.06.2012 21:01 16,9 C 55 % 1015,1 hPa 0,0 l/m 5,4 km/h (1 Bft) W-NW 292 7,8 C 16,9 C
13.06.2012 21:06 16,7 C 55 % 1015,2 hPa 0,0 l/m 4,3 km/h (1 Bft) N-NO 22 7,6 C 16,7 C
13.06.2012 21:11 16,5 C 56 % 1015,3 hPa 0,0 l/m 7,9 km/h (2 Bft) NW 315 7,7 C 16,5 C
13.06.2012 21:16 16,3 C 56 % 1015,4 hPa 0,0 l/m 4,0 km/h (1 Bft) O-NO 67 7,5 C 16,3 C
13.06.2012 21:21 16,1 C 56 % 1015,3 hPa 0,0 l/m 4,7 km/h (1 Bft) N-NO 22 7,3 C 16,1 C
13.06.2012 21:26 15,9 C 56 % 1015,3 hPa 0,0 l/m 3,2 km/h (1 Bft) N 360 7,1 C 15,9 C
13.06.2012 21:31 15,8 C 57 % 1015,5 hPa 0,0 l/m 0,0 km/h (0 Bft) NO 45 7,3 C 15,8 C
13.06.2012 21:36 15,8 C 57 % 1015,7 hPa 0,0 l/m 1,4 km/h (1 Bft) N 360 7,3 C 15,8 C
13.06.2012 21:41 15,6 C 58 % 1015,7 hPa 0,0 l/m 4,0 km/h (1 Bft) N-NO 22 7,4 C 15,6 C
13.06.2012 21:46 15,5 C 58 % 1015,8 hPa 0,0 l/m 2,2 km/h (1 Bft) O-NO 67 7,3 C 15,5 C
13.06.2012 21:51 15,4 C 59 % 1015,8 hPa 0,0 l/m 1,4 km/h (1 Bft) N 360 7,4 C 15,4 C
13.06.2012 21:56 15,3 C 59 % 1016,0 hPa 0,0 l/m 2,5 km/h (1 Bft) NO 45 7,3 C 15,3 C
13.06.2012 22:01 15,1 C 59 % 1016,0 hPa 0,0 l/m 3,2 km/h (1 Bft) NO 45 7,1 C 15,1 C
13.06.2012 22:06 14,9 C 60 % 1016,0 hPa 0,0 l/m 0,0 km/h (0 Bft) NO 45 7,2 C 14,9 C
13.06.2012 22:11 14,9 C 60 % 1016,1 hPa 0,0 l/m 2,2 km/h (1 Bft) N-NW 337 7,2 C 14,9 C
13.06.2012 22:16 14,9 C 60 % 1016,2 hPa 0,0 l/m 0,0 km/h (0 Bft) NW 315 7,2 C 14,9 C
13.06.2012 22:21 14,9 C 60 % 1016,1 hPa 0,0 l/m 2,5 km/h (1 Bft) NO 45 7,2 C 14,9 C
13.06.2012 22:26 14,8 C 60 % 1016,1 hPa 0,0 l/m 1,8 km/h (1 Bft) N-NO 22 7,1 C 14,8 C
13.06.2012 22:31 14,6 C 60 % 1016,0 hPa 0,0 l/m 0,0 km/h (0 Bft) NO 45 6,9 C 14,6 C
13.06.2012 22:36 14,6 C 61 % 1016,0 hPa 0,0 l/m 2,5 km/h (1 Bft) N-NO 22 7,2 C 14,6 C
13.06.2012 22:41 14,5 C 61 % 1016,1 hPa 0,0 l/m 1,1 km/h (1 Bft) N 360 7,1 C 14,5 C
13.06.2012 22:46 14,4 C 61 % 1016,1 hPa 0,0 l/m 0,0 km/h (0 Bft) N-NO 22 7,0 C 14,4 C
13.06.2012 22:51 14,4 C 61 % 1016,2 hPa 0,0 l/m 0,0 km/h (0 Bft) N 360 7,0 C 14,4 C
13.06.2012 22:56 14,3 C 62 % 1016,3 hPa 0,0 l/m 0,0 km/h (0 Bft) W-NW 292 7,1 C 14,3 C
13.06.2012 23:01 14,3 C 62 % 1016,4 hPa 0,0 l/m 0,0 km/h (0 Bft) NW 315 7,1 C 14,3 C
13.06.2012 23:06 14,3 C 63 % 1016,4 hPa 0,0 l/m 2,5 km/h (1 Bft) NW 315 7,4 C 14,3 C
13.06.2012 23:11 14,2 C 63 % 1016,3 hPa 0,0 l/m 2,2 km/h (1 Bft) NW 315 7,3 C 14,2 C
13.06.2012 23:16 14,1 C 64 % 1016,3 hPa 0,0 l/m 1,4 km/h (1 Bft) NW 315 7,4 C 14,1 C
13.06.2012 23:21 13,9 C 65 % 1016,5 hPa 0,0 l/m 2,2 km/h (1 Bft) NW 315 7,4 C 13,9 C
13.06.2012 23:26 13,9 C 65 % 1016,6 hPa 0,0 l/m 2,2 km/h (1 Bft) NW 315 7,4 C 13,9 C
13.06.2012 23:31 13,8 C 65 % 1016,6 hPa 0,0 l/m 2,2 km/h (1 Bft) W-NW 292 7,3 C 13,8 C
13.06.2012 23:36 13,5 C 66 % 1016,7 hPa 0,0 l/m 1,8 km/h (1 Bft) W-NW 292 7,3 C 13,5 C
13.06.2012 23:41 13,6 C 66 % 1016,7 hPa 0,0 l/m 1,1 km/h (1 Bft) N 360 7,4 C 13,6 C
13.06.2012 23:46 13,6 C 66 % 1016,8 hPa 0,0 l/m 1,4 km/h (1 Bft) W-NW 292 7,4 C 13,6 C
13.06.2012 23:51 13,5 C 66 % 1016,8 hPa 0,0 l/m 0,0 km/h (0 Bft) W-NW 292 7,3 C 13,5 C
13.06.2012 23:56 13,5 C 66 % 1016,9 hPa 0,0 l/m 0,0 km/h (0 Bft) NW 315 7,3 C 13,5 C
_ Min-Zeit 04:31 16:46 00:01 - 00:06 - - 22:31 04:31
Minimum _ 12,3 C 49 % 1005,6 hPa - 0,0 km/h (0 Bft) - - 6,9 C 12,3 C
_ Max-Zeit 16:01 05:51 23:56 00:01 12:46 - - 12:51 16:01
Maximum _ 20,9 C 87 % 1016,9 hPa 0,0 l/m 18,4 km/h
NW (3 Bft)
- - 12,5 C 20,9 C
Durchschnitt _ 16,0 C 70 % 1011,0 hPa #0,0 l/m 5,7 km/h (1 Bft) W-NW - 10,3 C 16,0 C
(c) by David Heller